Time;durP1;ratioP1;P1;durP2;ratioP2;P2;SDS_P1;SDS_P2;PMS_P1;PMS_P2;Temp;Humidity;BMP_temperature;BMP_pressure;BME280_temperature;BME280_humidity;BME280_pressure;Samples;Min_cycle;Max_cycle;Signal;HPM_P1;HPM_P2
2023/01/30 00:00:21;;;;;;;67.45;28.30;;;;;;;4.93;100.00;101651.66;4981441;28;20035;-71
2023/01/30 00:02:46;;;;;;;69.80;28.38;;;;;;;4.96;100.00;101640.13;4972316;28;20049;-71
2023/01/30 00:05:12;;;;;;;70.72;27.10;;;;;;;4.91;100.00;101626.19;4983116;28;20046;-70
2023/01/30 00:07:37;;;;;;;71.30;29.67;;;;;;;4.97;100.00;101633.97;4959864;28;20049;-71
2023/01/30 00:10:04;;;;;;;63.33;27.80;;;;;;;5.04;100.00;101626.72;4965426;28;20034;-71
2023/01/30 00:12:29;;;;;;;69.40;29.25;;;;;;;5.04;100.00;101621.44;4982567;28;20033;-71
2023/01/30 00:14:54;;;;;;;74.03;29.65;;;;;;;5.05;100.00;101626.66;4974652;28;20058;-71
2023/01/30 00:17:20;;;;;;;68.10;29.45;;;;;;;5.12;100.00;101619.44;4976780;28;20046;-71
2023/01/30 00:19:45;;;;;;;80.97;32.75;;;;;;;5.08;100.00;101616.03;4964047;28;20050;-71
2023/01/30 00:22:11;;;;;;;68.40;31.30;;;;;;;5.11;100.00;101621.22;4966882;28;20043;-71
2023/01/30 00:24:36;;;;;;;77.53;31.17;;;;;;;5.15;100.00;101611.41;4954610;28;20037;-71
2023/01/30 00:27:02;;;;;;;73.63;29.30;;;;;;;5.14;100.00;101615.84;4975348;28;20054;-71
2023/01/30 00:29:27;;;;;;;70.82;28.83;;;;;;;5.18;100.00;101616.63;4978391;28;20061;-71
2023/01/30 00:31:53;;;;;;;64.47;28.55;;;;;;;5.23;100.00;101614.72;4963263;28;20038;-71
2023/01/30 00:34:18;;;;;;;65.25;28.85;;;;;;;5.24;100.00;101605.00;4963438;28;20782;-71
2023/01/30 00:36:44;;;;;;;67.53;29.42;;;;;;;5.26;100.00;101596.09;4981928;28;20038;-71
2023/01/30 00:39:09;;;;;;;69.80;30.63;;;;;;;5.28;100.00;101594.31;4978553;28;20050;-71
2023/01/30 00:47:10;;;;;;;79.57;32.40;;;;;;;5.41;100.00;101584.22;4973119;28;20054;-71
2023/01/30 00:49:37;;;;;;;74.60;30.20;;;;;;;5.52;100.00;101576.81;4975633;28;20093;-71
2023/01/30 00:52:02;;;;;;;67.25;29.27;;;;;;;5.49;100.00;101569.00;4960213;28;20926;-71
2023/01/30 00:54:28;;;;;;;77.53;30.75;;;;;;;5.53;100.00;101561.84;4985393;28;20145;-71
2023/01/30 00:56:53;;;;;;;71.95;29.50;;;;;;;5.54;100.00;101571.50;4983657;28;20065;-71
2023/01/30 00:59:19;;;;;;;75.72;30.20;;;;;;;5.54;100.00;101559.13;4973011;28;20031;-71
2023/01/30 01:01:45;;;;;;;67.13;30.35;;;;;;;5.68;100.00;101556.06;4984946;28;20112;-71
2023/01/30 01:04:10;;;;;;;72.80;29.67;;;;;;;5.63;100.00;101558.00;4982346;28;20045;-71
2023/01/30 01:06:37;;;;;;;70.63;30.48;;;;;;;5.75;100.00;101543.50;4974471;28;20046;-71
2023/01/30 01:09:03;;;;;;;70.60;27.65;;;;;;;5.72;100.00;101531.22;4983792;28;20051;-71
2023/01/30 01:11:28;;;;;;;76.85;29.05;;;;;;;5.76;100.00;101526.69;4984563;28;20117;-71
2023/01/30 01:13:59;;;;;;;70.90;28.65;;;;;;;5.81;100.00;101538.00;4957561;28;20064;-71
2023/01/30 01:16:26;;;;;;;67.13;29.13;;;;;;;5.81;100.00;101524.75;4984689;28;20046;-71
2023/01/30 01:18:52;;;;;;;66.32;30.20;;;;;;;5.87;100.00;101532.50;4981631;28;20043;-72
2023/01/30 01:21:18;;;;;;;86.32;34.78;;;;;;;5.95;100.00;101544.59;4949340;28;20073;-71
2023/01/30 01:23:51;;;;;;;71.82;28.98;;;;;;;5.84;100.00;101530.84;4984142;28;20042;-71
2023/01/30 01:26:18;;;;;;;68.00;29.40;;;;;;;5.89;100.00;101526.25;4981489;28;20034;-71
2023/01/30 01:28:43;;;;;;;71.97;30.27;;;;;;;5.92;100.00;101527.94;4980359;28;20048;-71
2023/01/30 01:31:11;;;;;;;77.05;33.03;;;;;;;5.95;100.00;101531.38;4963229;28;20031;-71
2023/01/30 01:33:37;;;;;;;69.70;29.58;;;;;;;5.99;100.00;101523.34;4972121;28;20043;-71
2023/01/30 01:36:02;;;;;;;70.13;29.80;;;;;;;6.05;100.00;101529.28;4952908;28;20058;-71
2023/01/30 01:38:28;;;;;;;63.95;28.63;;;;;;;6.13;100.00;101510.50;4969629;28;20077;-71
2023/01/30 01:41:04;;;;;;;71.55;31.38;;;;;;;6.11;100.00;101505.25;4964158;28;20081;-71
2023/01/30 01:43:36;;;;;;;65.32;29.58;;;;;;;6.04;100.00;101502.88;4963222;28;20209;-72
2023/01/30 01:46:21;;;;;;;74.18;30.77;;;;;;;6.07;100.00;101510.69;4964151;28;20038;-71
2023/01/30 01:48:52;;;;;;;70.35;30.63;;;;;;;6.13;100.00;101487.53;4966217;28;20747;-71
2023/01/30 01:51:32;;;;;;;68.35;27.42;;;;;;;6.12;100.00;101487.56;4956548;28;20815;-71
2023/01/30 01:54:15;;;;;;;74.10;31.50;;;;;;;6.14;100.00;101475.16;4957994;28;20995;-71
2023/01/30 01:56:43;;;;;;;72.60;30.73;;;;;;;6.13;100.00;101476.94;4960541;28;20105;-71
2023/01/30 01:59:27;;;;;;;78.22;29.60;;;;;;;6.04;100.00;101493.16;4963268;28;20203;-71
2023/01/30 02:01:57;;;;;;;72.68;30.30;;;;;;;6.12;100.00;101475.19;4980205;28;20840;-70
2023/01/30 02:07:09;;;;;;;66.85;30.13;;;;;;;6.13;100.00;101462.84;4961803;28;20063;-71
2023/01/30 02:09:35;;;;;;;90.95;31.23;;;;;;;6.11;100.00;101473.47;4962487;28;20034;-71
2023/01/30 02:12:03;;;;;;;80.35;31.73;;;;;;;6.15;100.00;101467.16;4983582;28;20061;-71
2023/01/30 02:14:32;;;;;;;75.10;32.33;;;;;;;6.13;100.00;101463.72;4961165;28;20041;-71
2023/01/30 02:16:58;;;;;;;71.20;31.70;;;;;;;6.18;100.00;101460.91;4982927;28;20788;-71
2023/01/30 02:20:01;;;;;;;70.85;30.52;;;;;;;6.12;100.00;101464.59;4982141;28;20034;-71
2023/01/30 02:22:55;;;;;;;;;;;;;;;6.11;100.00;101456.72;4969034;28;20042;-71
2023/01/30 02:25:45;;;;;;;72.05;29.08;;;;;;;6.17;100.00;101451.19;4911248;28;20033;-71
2023/01/30 02:28:29;;;;;;;76.82;30.92;;;;;;;6.13;100.00;101442.53;4968554;28;20043;-71
2023/01/30 02:31:16;;;;;;;78.05;30.25;;;;;;;6.20;100.00;101443.16;4976531;28;20129;-71
2023/01/30 02:33:50;;;;;;;73.82;30.15;;;;;;;6.22;100.00;101430.72;4975976;28;20065;-71
2023/01/30 02:36:51;;;;;;;75.55;29.27;;;;;;;6.25;100.00;101443.00;4963781;28;20137;-71
2023/01/30 02:39:51;;;;;;;80.55;31.25;;;;;;;6.27;100.00;101431.41;4962730;28;20226;-71
2023/01/30 02:42:38;;;;;;;64.72;31.00;;;;;;;6.24;100.00;101450.09;4971532;28;20046;-72
2023/01/30 02:45:27;;;;;;;67.30;31.92;;;;;;;6.22;100.00;101436.91;4963242;28;20049;-71
2023/01/30 02:48:01;;;;;;;64.20;28.52;;;;;;;6.21;100.00;101429.00;4961228;28;20476;-72
2023/01/30 02:50:29;;;;;;;67.05;29.58;;;;;;;6.16;100.00;101423.88;4969178;28;20459;-72
2023/01/30 02:52:56;;;;;;;67.43;29.10;;;;;;;6.17;100.00;101430.03;4983151;28;20046;-72
2023/01/30 02:55:25;;;;;;;74.38;31.83;;;;;;;6.19;100.00;101423.75;4964664;28;20061;-72
2023/01/30 02:57:51;;;;;;;73.25;29.05;;;;;;;6.13;100.00;101421.34;4964947;28;20042;-72
2023/01/30 03:00:58;;;;;;;66.90;28.92;;;;;;;6.07;100.00;101412.72;4960729;28;20043;-71
2023/01/30 03:03:52;;;;;;;67.28;28.27;;;;;;;6.07;100.00;101425.97;4980970;28;20051;-72
2023/01/30 03:06:28;;;;;;;69.72;29.75;;;;;;;6.10;100.00;101426.75;4983155;28;20135;-72
2023/01/30 03:09:02;;;;;;;68.53;30.35;;;;;;;6.12;100.00;101418.72;4981329;28;20033;-72
2023/01/30 03:11:53;;;;;;;69.78;31.08;;;;;;;6.14;100.00;101422.22;4976011;28;20096;-72
2023/01/30 03:14:18;;;;;;;68.50;30.08;;;;;;;6.06;100.00;101416.31;4958425;28;20030;-73
2023/01/30 03:16:46;;;;;;;66.55;30.13;;;;;;;6.09;100.00;101416.22;4988943;28;20038;-72
2023/01/30 03:19:12;;;;;;;73.35;29.13;;;;;;;6.03;100.00;101417.28;4964307;28;20054;-72
2023/01/30 03:21:44;;;;;;;67.03;29.83;;;;;;;6.08;100.00;101412.69;4973503;28;20037;-73
2023/01/30 03:24:10;;;;;;;67.07;29.90;;;;;;;6.11;100.00;101417.00;4960894;28;20034;-72
2023/01/30 03:26:45;;;;;;;67.55;29.38;;;;;;;6.04;100.00;101412.88;4957322;28;20035;-72
2023/01/30 03:29:10;;;;;;;72.18;28.75;;;;;;;6.04;100.00;101408.44;4954492;28;20027;-72
2023/01/30 03:31:36;;;;;;;71.32;28.10;;;;;;;6.09;100.00;101395.03;4957059;28;20745;-71
2023/01/30 03:34:01;;;;;;;58.88;28.40;;;;;;;6.12;100.00;101398.41;4968913;28;20570;-72
2023/01/30 03:36:28;;;;;;;64.15;26.80;;;;;;;6.19;100.00;101392.00;4959863;28;20035;-72
2023/01/30 03:38:55;;;;;;;66.63;26.42;;;;;;;6.22;100.00;101391.00;4976896;28;20054;-72
2023/01/30 03:41:21;;;;;;;55.40;23.63;;;;;;;6.19;100.00;101396.44;4974909;28;20034;-72
2023/01/30 03:43:46;;;;;;;63.78;24.35;;;;;;;6.29;100.00;101395.16;4983215;28;20034;-72
2023/01/30 03:46:14;;;;;;;51.92;21.40;;;;;;;6.29;100.00;101386.38;4979325;28;20117;-72
2023/01/30 03:48:39;;;;;;;44.80;18.80;;;;;;;6.29;100.00;101392.53;4965628;28;20494;-72
2023/01/30 03:51:05;;;;;;;45.55;20.08;;;;;;;6.39;100.00;101388.63;4962276;28;20043;-72
2023/01/30 03:53:34;;;;;;;43.63;17.73;;;;;;;6.45;100.00;101384.88;4960644;28;20451;-71
2023/01/30 03:55:59;;;;;;;35.72;16.23;;;;;;;6.48;100.00;101390.06;4959253;28;20136;-74
2023/01/30 03:58:29;;;;;;;34.08;15.57;;;;;;;6.52;100.00;101393.44;4965361;28;20121;-73
2023/01/30 04:00:56;;;;;;;31.77;15.05;;;;;;;6.53;100.00;101389.88;4953441;28;20150;-72
2023/01/30 04:03:22;;;;;;;26.98;15.15;;;;;;;6.55;100.00;101402.13;4968423;28;20636;-72
2023/01/30 04:05:51;;;;;;;34.53;14.77;;;;;;;6.56;100.00;101395.06;4960381;28;20045;-71
2023/01/30 04:08:16;;;;;;;31.35;14.65;;;;;;;6.62;100.00;101385.06;4964511;28;20446;-72
2023/01/30 04:10:41;;;;;;;35.72;14.52;;;;;;;6.66;100.00;101391.13;4964069;28;20096;-72
2023/01/30 04:13:07;;;;;;;29.13;14.75;;;;;;;6.65;100.00;101394.72;4964504;28;20042;-71
2023/01/30 04:15:32;;;;;;;32.17;14.40;;;;;;;6.59;100.00;101392.31;4964130;28;20058;-72
2023/01/30 04:18:16;;;;;;;36.00;16.05;;;;;;;6.65;100.00;101400.88;4983358;28;20041;-71
2023/01/30 04:21:02;;;;;;;36.75;14.93;;;;;;;6.60;100.00;101397.53;4962118;28;20066;-73
2023/01/30 04:23:33;;;;;;;32.60;15.45;;;;;;;6.66;100.00;101396.44;4956173;28;20050;-72
2023/01/30 04:25:59;;;;;;;47.38;17.15;;;;;;;6.65;100.00;101384.97;4965509;28;20049;-72
2023/01/30 04:28:26;;;;;;;34.83;16.08;;;;;;;6.74;100.00;101391.72;4966120;28;20140;-72
2023/01/30 04:30:52;;;;;;;35.22;14.90;;;;;;;6.71;100.00;101378.56;4964882;28;20092;-72
2023/01/30 04:33:39;;;;;;;32.33;15.52;;;;;;;6.80;100.00;101370.25;4959609;28;20034;-72
2023/01/30 04:36:07;;;;;;;32.65;14.10;;;;;;;6.73;100.00;101369.66;4942216;28;20034;-72
2023/01/30 04:38:34;;;;;;;31.90;16.52;;;;;;;6.79;100.00;101378.28;4957609;28;20046;-72
2023/01/30 04:41:00;;;;;;;32.83;14.65;;;;;;;6.78;100.00;101380.06;4956359;28;20039;-71
2023/01/30 04:43:28;;;;;;;38.80;17.95;;;;;;;6.85;100.00;101381.53;4964009;28;20082;-72
2023/01/30 04:46:15;;;;;;;48.88;16.25;;;;;;;6.85;100.00;101383.34;4963396;28;20030;-72
2023/01/30 04:48:41;;;;;;;49.08;15.73;;;;;;;6.93;100.00;101387.44;4964870;28;20861;-72
2023/01/30 04:51:06;;;;;;;29.05;14.23;;;;;;;6.86;100.00;101369.16;4980055;28;20039;-72
2023/01/30 04:53:32;;;;;;;28.98;13.38;;;;;;;6.94;100.00;101373.25;4964545;28;20042;-71
2023/01/30 04:55:58;;;;;;;40.17;14.32;;;;;;;6.98;100.00;101374.00;4953557;28;20043;-73
2023/01/30 04:58:23;;;;;;;32.47;14.00;;;;;;;6.99;100.00;101370.41;4981545;28;20114;-72
2023/01/30 05:00:49;;;;;;;34.38;15.73;;;;;;;6.97;100.00;101373.09;4964019;28;20042;-73
2023/01/30 05:03:15;;;;;;;43.35;15.82;;;;;;;6.95;100.00;101377.59;4979762;28;20050;-72
2023/01/30 05:05:41;;;;;;;30.48;13.35;;;;;;;6.88;100.00;101377.94;4983038;28;20081;-73
2023/01/30 05:08:07;;;;;;;31.83;13.80;;;;;;;6.93;100.00;101376.81;4976334;28;20136;-72
2023/01/30 05:10:33;;;;;;;31.05;12.43;;;;;;;6.88;100.00;101372.63;4983173;28;20090;-72
2023/01/30 05:13:02;;;;;;;32.15;12.43;;;;;;;6.94;100.00;101382.97;4959389;28;20045;-72
2023/01/30 05:15:28;;;;;;;37.10;13.00;;;;;;;6.92;100.00;101390.13;4980131;28;20398;-72
2023/01/30 05:17:53;;;;;;;33.15;12.23;;;;;;;6.92;100.00;101387.47;4974968;28;20042;-72
2023/01/30 05:20:18;;;;;;;32.30;12.60;;;;;;;7.04;100.00;101375.53;4958324;28;20097;-72
2023/01/30 05:22:44;;;;;;;31.40;12.30;;;;;;;6.99;100.00;101379.22;4982392;28;20042;-72
2023/01/30 05:25:10;;;;;;;44.95;12.27;;;;;;;7.00;100.00;101366.81;4977341;28;20684;-72
2023/01/30 05:27:36;;;;;;;32.63;12.07;;;;;;;6.98;100.00;101364.25;4974377;28;20050;-72
2023/01/30 05:30:02;;;;;;;34.60;10.88;;;;;;;7.09;100.00;101373.56;4978374;28;20038;-72
2023/01/30 05:32:29;;;;;;;29.92;11.05;;;;;;;7.11;100.00;101380.50;4983562;28;20842;-72
2023/01/30 05:34:54;;;;;;;33.80;9.25;;;;;;;7.09;100.00;101371.75;4970448;28;20070;-72
2023/01/30 05:37:21;;;;;;;31.67;10.23;;;;;;;7.12;100.00;101368.09;4976504;28;20070;-72
2023/01/30 05:39:46;;;;;;;32.17;9.55;;;;;;;7.02;100.00;101354.34;4984957;28;20633;-71
2023/01/30 05:42:12;;;;;;;26.05;8.38;;;;;;;7.10;100.00;101354.91;4965569;28;20133;-72
2023/01/30 05:44:38;;;;;;;40.45;9.45;;;;;;;7.13;100.00;101361.88;4984912;28;20030;-71
2023/01/30 05:47:03;;;;;;;31.88;8.90;;;;;;;7.06;100.00;101358.63;4980378;28;20046;-71
2023/01/30 05:49:29;;;;;;;23.83;8.75;;;;;;;7.13;100.00;101356.56;4972206;28;20050;-72
2023/01/30 05:51:54;;;;;;;27.63;7.82;;;;;;;7.11;100.00;101369.91;4984344;28;20131;-72
2023/01/30 05:54:20;;;;;;;23.98;8.63;;;;;;;7.13;100.00;101365.41;4984774;28;20046;-72
2023/01/30 05:56:49;;;;;;;25.58;8.27;;;;;;;7.17;100.00;101374.94;4984177;28;20102;-72
2023/01/30 05:59:15;;;;;;;29.30;8.30;;;;;;;7.14;100.00;101379.53;4965864;28;20129;-71
2023/01/30 06:01:41;;;;;;;30.80;8.10;;;;;;;7.28;100.00;101369.22;4984001;28;20046;-72
2023/01/30 06:04:06;;;;;;;20.73;6.00;;;;;;;7.18;100.00;101368.75;4974092;28;20097;-72
2023/01/30 06:06:31;;;;;;;23.45;6.85;;;;;;;7.21;100.00;101379.22;4982603;28;20038;-72
2023/01/30 06:08:57;;;;;;;25.95;6.28;;;;;;;7.14;100.00;101366.28;4984328;28;20034;-71
2023/01/30 06:11:23;;;;;;;20.00;6.03;;;;;;;7.11;100.00;101361.09;4977588;28;20597;-72
2023/01/30 06:13:49;;;;;;;22.27;5.63;;;;;;;7.10;100.00;101370.84;4979274;28;20117;-72
2023/01/30 06:16:16;;;;;;;15.27;5.35;;;;;;;7.10;100.00;101362.00;4971367;28;20105;-71
2023/01/30 06:18:42;;;;;;;18.23;5.32;;;;;;;7.09;100.00;101362.94;4981600;28;20698;-72
2023/01/30 06:21:08;;;;;;;16.05;3.92;;;;;;;7.03;100.00;101372.03;4971028;28;20030;-71
2023/01/30 06:23:34;;;;;;;14.50;4.38;;;;;;;7.08;100.00;101378.00;4981168;28;20038;-72
2023/01/30 06:26:00;;;;;;;20.02;4.40;;;;;;;7.01;100.00;101390.63;4971181;28;20046;-71
2023/01/30 06:28:26;;;;;;;8.90;3.08;;;;;;;6.90;100.00;101382.22;4981241;28;20038;-71
2023/01/30 06:30:52;;;;;;;10.80;3.22;;;;;;;6.74;100.00;101384.63;4975428;28;20479;-71
2023/01/30 06:33:18;;;;;;;20.70;3.67;;;;;;;6.86;100.00;101390.38;4980473;28;20066;-72
2023/01/30 06:35:48;;;;;;;21.20;3.47;;;;;;;6.76;100.00;101408.41;4975907;28;20169;-72
2023/01/30 06:38:14;;;;;;;17.15;3.08;;;;;;;6.75;100.00;101386.34;4976193;28;20058;-72
2023/01/30 06:40:43;;;;;;;14.48;4.38;;;;;;;6.85;100.00;101397.44;4981417;28;20054;-71
2023/01/30 06:43:10;;;;;;;12.55;3.65;;;;;;;6.89;100.00;101396.41;4974072;28;20073;-71
2023/01/30 06:45:36;;;;;;;14.20;3.83;;;;;;;6.82;100.00;101386.97;4993754;28;20042;-71
2023/01/30 06:48:02;;;;;;;25.88;4.70;;;;;;;6.73;100.00;101398.81;4975268;28;20064;-72
2023/01/30 06:50:28;;;;;;;26.67;3.60;;;;;;;6.75;100.00;101410.19;4957168;28;20395;-71
2023/01/30 06:52:54;;;;;;;19.23;5.45;;;;;;;6.82;100.00;101400.22;4978635;28;20111;-71
2023/01/30 06:55:23;;;;;;;10.77;3.45;;;;;;;6.68;100.00;101399.91;4949594;28;20018;-71
2023/01/30 06:57:49;;;;;;;25.13;4.10;;;;;;;6.66;100.00;101410.53;4970705;28;20791;-70
2023/01/30 07:00:17;;;;;;;16.98;3.15;;;;;;;6.68;100.00;101408.72;4960353;28;20038;-71
2023/01/30 07:02:44;;;;;;;21.42;4.00;;;;;;;6.74;100.00;101412.91;4964325;28;20146;-72
2023/01/30 07:05:09;;;;;;;11.57;2.72;;;;;;;6.48;100.00;101412.13;4968824;28;20085;-71
2023/01/30 07:07:36;;;;;;;13.20;3.10;;;;;;;6.52;100.00;101418.16;4965549;28;20951;-72
2023/01/30 07:10:03;;;;;;;21.92;3.75;;;;;;;6.47;100.00;101415.66;4976020;28;20042;-71
2023/01/30 07:12:28;;;;;;;18.90;3.38;;;;;;;6.45;100.00;101424.59;4962125;28;20470;-71
2023/01/30 07:14:54;;;;;;;15.18;4.03;;;;;;;6.38;100.00;101429.28;4983738;28;20046;-71
2023/01/30 07:17:23;;;;;;;23.52;4.22;;;;;;;6.27;100.00;101435.84;4982447;28;20112;-71
2023/01/30 07:19:48;;;;;;;22.73;4.68;;;;;;;6.31;100.00;101441.00;4973633;28;20120;-71
2023/01/30 07:22:14;;;;;;;20.52;3.10;;;;;;;6.26;100.00;101447.38;4981410;28;20042;-71
2023/01/30 07:24:41;;;;;;;40.28;6.15;;;;;;;6.28;100.00;101451.72;4953694;28;20062;-71
2023/01/30 07:27:09;;;;;;;25.10;3.58;;;;;;;6.31;100.00;101451.59;4976661;28;20043;-71
2023/01/30 07:29:35;;;;;;;20.30;3.30;;;;;;;6.30;100.00;101455.16;4982702;28;20046;-71
2023/01/30 07:32:01;;;;;;;16.65;4.35;;;;;;;6.24;100.00;101455.38;4979204;28;20091;-71
2023/01/30 07:34:26;;;;;;;24.33;3.00;;;;;;;6.19;100.00;101447.59;4978077;28;20503;-71
2023/01/30 07:36:52;;;;;;;23.77;3.30;;;;;;;6.25;100.00;101449.16;4974774;28;20502;-72
2023/01/30 07:39:17;;;;;;;37.72;6.07;;;;;;;6.23;100.00;101464.25;4961357;28;20120;-71
2023/01/30 07:41:43;;;;;;;15.77;3.05;;;;;;;6.28;100.00;101457.00;4978355;28;20031;-71
2023/01/30 07:44:09;;;;;;;34.22;3.75;;;;;;;6.27;100.00;101449.09;4975384;28;20068;-72
2023/01/30 07:46:35;;;;;;;25.02;3.35;;;;;;;6.30;100.00;101454.28;4982428;28;20050;-72
2023/01/30 07:49:01;;;;;;;21.63;4.22;;;;;;;6.32;100.00;101460.38;4978161;28;20066;-71
2023/01/30 07:51:27;;;;;;;29.02;4.45;;;;;;;6.40;100.00;101461.00;4980786;28;20038;-71
2023/01/30 07:53:52;;;;;;;22.98;3.95;;;;;;;6.41;100.00;101460.94;4976404;28;20597;-71
2023/01/30 07:56:20;;;;;;;35.15;5.57;;;;;;;6.39;100.00;101453.97;4979329;28;20042;-72
2023/01/30 07:58:46;;;;;;;36.17;6.50;;;;;;;6.51;100.00;101447.34;4974278;28;20035;-71
2023/01/30 08:01:12;;;;;;;17.35;3.58;;;;;;;6.46;100.00;101453.69;4973103;28;20483;-72
2023/01/30 08:03:37;;;;;;;15.15;3.72;;;;;;;6.54;100.00;101458.72;4966443;28;20046;-71
2023/01/30 08:06:03;;;;;;;36.40;4.53;;;;;;;6.53;100.00;101459.63;4975737;28;20057;-71
2023/01/30 08:08:28;;;;;;;21.75;4.35;;;;;;;6.53;100.00;101470.22;4977413;28;20050;-71
2023/01/30 08:10:54;;;;;;;25.38;6.63;;;;;;;6.47;100.00;101471.28;4977162;28;20165;-72
2023/01/30 08:13:19;;;;;;;25.15;4.53;;;;;;;6.59;100.00;101474.44;4982833;28;20105;-72
2023/01/30 08:15:44;;;;;;;31.02;3.58;;;;;;;6.33;100.00;101473.59;4981863;28;20042;-72
2023/01/30 08:18:10;;;;;;;20.15;3.85;;;;;;;6.43;100.00;101482.94;4982520;28;20050;-70
2023/01/30 08:20:36;;;;;;;22.85;4.38;;;;;;;6.36;100.00;101483.19;4982090;28;20035;-70
2023/01/30 08:23:01;;;;;;;43.50;4.78;;;;;;;6.28;100.00;101482.63;4982060;28;20049;-71
2023/01/30 08:25:27;;;;;;;30.80;4.60;;;;;;;6.31;100.00;101487.81;4976499;28;20057;-72
2023/01/30 08:27:53;;;;;;;15.35;3.50;;;;;;;6.33;100.00;101499.22;4975068;28;20093;-71
2023/01/30 08:30:20;;;;;;;29.52;3.85;;;;;;;6.25;100.00;101503.91;4974508;28;20035;-72
2023/01/30 08:32:45;;;;;;;28.27;4.40;;;;;;;6.29;100.00;101508.19;4989714;28;20644;-71
2023/01/30 08:35:11;;;;;;;28.83;5.22;;;;;;;6.36;100.00;101510.56;4979246;28;20122;-74
2023/01/30 08:37:38;;;;;;;21.95;4.05;;;;;;;6.32;100.00;101493.03;4978628;28;20082;-71
2023/01/30 08:40:04;;;;;;;26.30;4.50;;;;;;;6.36;100.00;101492.00;4971484;28;20053;-71
2023/01/30 08:42:29;;;;;;;21.63;4.20;;;;;;;6.44;100.00;101492.63;4980577;28;20046;-71
2023/01/30 08:44:55;;;;;;;25.58;5.95;;;;;;;6.49;100.00;101493.31;4966999;28;20039;-70
2023/01/30 08:47:20;;;;;;;28.27;4.18;;;;;;;6.48;100.00;101496.91;4972443;28;20574;-72
2023/01/30 08:49:46;;;;;;;18.23;4.20;;;;;;;6.63;100.00;101511.38;4977820;28;20034;-72
2023/01/30 08:52:11;;;;;;;31.00;5.85;;;;;;;6.68;100.00;101501.47;4981300;28;20038;-74
2023/01/30 08:54:37;;;;;;;24.73;4.93;;;;;;;6.70;100.00;101510.22;4973373;28;20047;-73
2023/01/30 08:57:02;;;;;;;34.15;4.65;;;;;;;6.90;100.00;101508.63;4974561;28;20491;-71
2023/01/30 08:59:27;;;;;;;19.40;4.68;;;;;;;6.88;100.00;101521.94;4965227;28;20042;-71
2023/01/30 09:01:53;;;;;;;37.55;4.72;;;;;;;6.82;100.00;101523.94;4963815;28;20043;-72
2023/01/30 09:04:18;;;;;;;31.92;3.80;;;;;;;6.80;100.00;101531.09;4975550;28;20096;-71
2023/01/30 09:06:44;;;;;;;21.42;4.30;;;;;;;7.07;100.00;101531.84;4979603;28;20034;-71
2023/01/30 09:09:09;;;;;;;15.88;3.95;;;;;;;7.38;99.62;101526.22;4978477;28;20543;-71
2023/01/30 09:11:35;;;;;;;31.67;5.70;;;;;;;7.36;98.81;101542.19;4973973;28;20061;-72
2023/01/30 09:14:00;;;;;;;24.15;5.03;;;;;;;7.41;98.84;101540.25;4975436;28;20046;-71
2023/01/30 09:16:25;;;;;;;18.38;4.15;;;;;;;7.35;99.47;101547.56;4975593;28;20114;-72
2023/01/30 09:18:51;;;;;;;21.65;4.25;;;;;;;7.32;98.07;101537.94;4976892;28;20034;-71
2023/01/30 09:21:16;;;;;;;30.98;4.43;;;;;;;7.50;97.92;101539.88;4976637;28;20046;-71
2023/01/30 09:23:42;;;;;;;18.27;4.65;;;;;;;7.42;97.31;101534.00;4983034;28;20530;-71
2023/01/30 09:26:07;;;;;;;23.90;4.18;;;;;;;7.25;95.97;101537.31;4982557;28;20054;-71
2023/01/30 09:28:34;;;;;;;15.27;3.05;;;;;;;7.49;96.22;101527.53;4969129;28;20090;-71
2023/01/30 09:31:00;;;;;;;36.60;5.88;;;;;;;7.43;95.13;101533.09;4982678;28;20049;-71
2023/01/30 09:33:26;;;;;;;25.05;4.13;;;;;;;7.38;95.69;101536.81;4977381;28;20034;-71
2023/01/30 09:35:52;;;;;;;25.63;4.45;;;;;;;7.39;94.78;101546.53;4982941;28;20093;-71
2023/01/30 09:38:18;;;;;;;26.13;2.97;;;;;;;7.39;93.56;101535.94;4984817;28;20050;-71
2023/01/30 09:40:59;;;;;;;24.65;4.78;;;;;;;7.52;94.38;101542.47;4981660;28;20046;-71
2023/01/30 09:43:47;;;;;;;29.38;3.53;;;;;;;7.53;94.33;101545.09;4996644;28;20182;-71
2023/01/30 09:46:35;;;;;;;18.30;3.20;;;;;;;7.48;94.92;101549.72;4982717;28;20062;-71
2023/01/30 09:49:26;;;;;;;25.38;5.68;;;;;;;7.45;93.50;101567.53;4977926;28;20041;-71
2023/01/30 09:52:38;;;;;;;23.52;3.47;;;;;;;7.36;93.35;101557.25;4984834;28;20053;-72
2023/01/30 09:55:24;;;;;;;14.38;3.08;;;;;;;7.44;94.21;101564.00;4952553;28;20824;-71
2023/01/30 09:57:51;;;;;;;22.77;4.05;;;;;;;7.43;94.36;101556.97;4971602;28;20092;-71
2023/01/30 10:00:25;;;;;;;27.60;4.32;;;;;;;7.57;92.48;101566.16;4983651;28;20053;-71
2023/01/30 10:03:10;;;;;;;23.40;4.43;;;;;;;7.57;93.57;101571.47;4982131;28;20926;-71
2023/01/30 10:05:43;;;;;;;15.05;3.50;;;;;;;7.65;94.56;101572.91;4981557;28;20089;-71
2023/01/30 10:08:19;;;;;;;13.55;3.13;;;;;;;7.73;93.01;101562.88;4993627;28;20044;-71
2023/01/30 10:10:56;;;;;;;16.05;3.95;;;;;;;7.82;92.84;101563.41;4980309;28;20128;-71
2023/01/30 10:13:53;;;;;;;20.95;4.15;;;;;;;7.92;92.12;101557.66;4969264;28;20053;-71
2023/01/30 10:16:38;;;;;;;26.67;3.63;;;;;;;7.84;91.13;101562.44;4979457;28;20050;-71
2023/01/30 10:19:42;;;;;;;17.02;3.33;;;;;;;7.77;91.55;101566.25;4967578;28;20057;-72
2023/01/30 10:22:26;;;;;;;25.33;2.85;;;;;;;7.82;92.15;101564.28;4989058;28;20042;-71
2023/01/30 10:25:20;;;;;;;25.70;4.32;;;;;;;7.85;92.35;101568.59;4972418;28;20183;-71
2023/01/30 10:28:00;;;;;;;26.45;5.10;;;;;;;7.98;91.98;101570.72;4979819;28;20042;-71
2023/01/30 10:30:25;;;;;;;27.35;3.70;;;;;;;7.84;91.94;101566.88;4973763;28;20053;-72
2023/01/30 10:33:20;;;;;;;19.75;3.33;;;;;;;7.84;92.64;101580.16;4977466;28;20035;-71
2023/01/30 10:36:02;;;;;;;20.08;4.45;;;;;;;7.81;94.22;101572.31;4978890;28;20077;-72
2023/01/30 10:38:36;;;;;;;21.38;6.25;;;;;;;7.75;94.84;101589.34;4994231;28;20046;-71
2023/01/30 10:41:23;;;;;;;28.45;3.83;;;;;;;7.72;93.76;101590.31;4984130;28;20053;-71
2023/01/30 10:44:12;;;;;;;21.92;4.25;;;;;;;7.77;93.25;101590.13;4982140;28;20031;-71
2023/01/30 10:46:59;;;;;;;25.08;3.50;;;;;;;7.79;92.39;101580.34;4971673;28;20834;-71
2023/01/30 10:49:46;;;;;;;21.00;4.13;;;;;;;7.77;94.03;101590.13;4979917;28;20070;-71
2023/01/30 10:52:44;;;;;;;22.25;3.83;;;;;;;7.82;93.16;101588.16;4976674;28;20030;-71
2023/01/30 10:55:45;;;;;;;24.00;5.38;;;;;;;7.88;92.83;101585.28;4977307;28;20125;-73
2023/01/30 10:58:19;;;;;;;28.63;3.72;;;;;;;8.03;91.67;101576.69;4981513;28;20129;-71
2023/01/30 11:01:07;;;;;;;27.83;4.32;;;;;;;8.20;90.29;101578.66;4983646;28;20134;-72
2023/01/30 11:03:57;;;;;;;21.48;4.53;;;;;;;8.21;91.13;101584.81;4972637;28;20260;-71
2023/01/30 11:06:24;;;;;;;22.20;3.70;;;;;;;8.20;89.59;101583.97;4979462;28;20078;-72
2023/01/30 11:08:51;;;;;;;25.88;3.78;;;;;;;8.17;89.69;101570.78;4973460;28;20038;-71
2023/01/30 11:11:28;;;;;;;19.35;3.42;;;;;;;8.11;88.53;101578.16;4983678;28;20133;-71
2023/01/30 11:14:06;;;;;;;19.98;3.75;;;;;;;8.30;87.48;101593.28;4980404;28;20045;-71
2023/01/30 11:16:42;;;;;;;23.80;4.85;;;;;;;8.25;87.86;101586.44;4982095;28;20049;-71
2023/01/30 11:19:08;;;;;;;24.35;4.38;;;;;;;8.28;86.96;101589.84;4978427;28;20089;-72
2023/01/30 11:21:35;;;;;;;19.25;5.40;;;;;;;8.18;87.12;101587.59;4982999;28;20048;-71
2023/01/30 11:24:11;;;;;;;19.02;3.58;;;;;;;8.31;86.88;101589.69;4977397;28;20074;-71
2023/01/30 11:26:37;;;;;;;23.95;3.78;;;;;;;8.76;85.01;101595.78;4977272;28;20042;-72
2023/01/30 11:29:15;;;;;;;21.48;4.55;;;;;;;8.82;83.87;101596.38;4982040;28;20057;-72
2023/01/30 11:31:40;;;;;;;20.70;4.43;;;;;;;8.56;84.62;101605.50;4981431;28;20046;-72
2023/01/30 11:34:15;;;;;;;11.80;3.40;;;;;;;8.48;82.81;101606.75;4971001;28;20464;-72
2023/01/30 11:36:40;;;;;;;23.33;3.25;;;;;;;8.51;83.16;101607.47;4979370;28;20035;-71